Skip Navigation LinksHome page > Weather > Current weather Skip Navigation Links

Current Weather

San Francisco International, San Francisco

For information only: do not use for flight planning or navigation.
Latest weather
Observation time Tuesday, January 26, 2021 12:56 PM PST
Local time Tuesday, January 26, 2021 1:15 PM PST
Flight conditions Visual Meteorological Conditions
Winds
Wind direction South (180°)
Wind speed 13 mph
Visibility 10 mi.
Sky condition
Ceiling 7,000 ft. broken clouds
Cloud layer few clouds 3,500 ft.
Cloud layer broken clouds 7,000 ft.
Cloud layer overcast 8,500 ft.
Temperature 52°F
Dewpoint 37°F
Altimeter 29.95 in.Hg
Pressure change last 3 hours0.04 in.Hg
Pressure falling more quickly
Derived measurements
Relative humidity 57%
Density altitude -373 ft.
Sea-level pressure 29.95 in.Hg
Remarks
Automated weather observing station with precipitation discriminator.
METAR KSFO 262056Z 18011KT 10SM FEW035 BKN070 OVC085 11/03 A2995 RMK AO2 SLP141 T01110028 58012

Settings

Location code

InnerDrive.Weather 4.0.6770.0 Release CLR 4.0.30319.42000
Copyright ©2018 Inner Drive Technology. All rights reserved. Portions Copyright ©1986-2018 David Braverman.

Find weather

Site navigation


Skip Navigation Links

Place info

Page info

PayPal - The safer, easier way to pay online!

Return home.

Copyright ©2021 Inner Drive Technology. Purveyors of fine, hand-crafted computer software. Page printed 2021-01-26T21:15:45 UTC.